createdAt,value
2022-09-18T00:01:41.321Z,86.70
2022-09-18T00:04:13.862Z,87.00
2022-09-18T00:06:45.567Z,87.10
2022-09-18T00:09:16.000Z,87.00
2022-09-18T00:11:47.502Z,86.80
2022-09-18T00:14:18.592Z,86.90
2022-09-18T00:16:46.721Z,86.90
2022-09-18T00:19:15.542Z,87.00
2022-09-18T00:21:48.301Z,87.30
2022-09-18T00:24:17.830Z,87.00
2022-09-18T00:26:46.693Z,86.80
2022-09-18T00:29:16.196Z,87.00
2022-09-18T00:31:44.669Z,86.80
2022-09-18T00:34:15.622Z,86.70
2022-09-18T00:36:45.366Z,86.70
2022-09-18T00:39:14.639Z,86.60
2022-09-18T00:41:44.812Z,86.50
2022-09-18T00:44:36.491Z,86.60
2022-09-18T00:47:27.636Z,86.50
2022-09-18T00:50:07.786Z,86.50
2022-09-18T00:52:48.457Z,86.60
2022-09-18T00:55:20.400Z,86.80
2022-09-18T00:57:54.399Z,86.80
2022-09-18T01:00:23.748Z,86.80
2022-09-18T01:02:52.406Z,87.00
2022-09-18T01:05:29.192Z,86.90
2022-09-18T01:08:17.184Z,86.90
2022-09-18T01:11:02.053Z,87.00
2022-09-18T01:13:43.510Z,86.90
2022-09-18T01:16:23.629Z,87.10
2022-09-18T01:19:03.855Z,87.20
2022-09-18T01:21:36.831Z,87.60
2022-09-18T01:24:41.460Z,87.60
2022-09-18T01:27:17.628Z,87.80
2022-09-18T01:29:56.989Z,88.10
2022-09-18T01:32:31.457Z,87.90
2022-09-18T01:35:18.697Z,88.10
2022-09-18T01:38:02.197Z,88.20
2022-09-18T01:40:36.512Z,88.20
2022-09-18T01:43:08.628Z,88.30
2022-09-18T01:45:45.322Z,88.30
2022-09-18T01:48:20.223Z,88.40
2022-09-18T01:50:56.491Z,88.30
2022-09-18T01:53:29.609Z,88.50
2022-09-18T01:56:04.492Z,88.50
2022-09-18T01:58:35.548Z,88.40
2022-09-18T02:01:13.072Z,88.50
2022-09-18T02:03:46.217Z,88.50
2022-09-18T02:06:19.401Z,88.80
2022-09-18T02:08:51.177Z,88.90
2022-09-18T02:11:21.057Z,88.90
2022-09-18T02:13:55.149Z,88.90
2022-09-18T02:16:30.875Z,89.20
2022-09-18T02:19:07.031Z,89.10
2022-09-18T02:21:35.952Z,89.20
2022-09-18T02:24:10.264Z,89.30
2022-09-18T02:26:41.069Z,89.00
2022-09-18T02:29:13.285Z,89.20
2022-09-18T02:31:43.112Z,89.00
2022-09-18T02:34:13.647Z,89.20
2022-09-18T02:37:02.113Z,89.30
2022-09-18T02:39:50.504Z,89.20
2022-09-18T02:42:34.056Z,89.10
2022-09-18T02:45:13.699Z,89.40
2022-09-18T02:48:02.815Z,89.40
2022-09-18T02:50:39.225Z,89.30
2022-09-18T02:53:12.122Z,89.40
2022-09-18T02:55:45.812Z,89.50
2022-09-18T02:58:21.005Z,89.40
2022-09-18T03:00:50.441Z,89.50
2022-09-18T03:03:20.220Z,89.60
2022-09-18T03:05:48.576Z,89.70
2022-09-18T03:08:16.816Z,89.70
2022-09-18T03:10:45.009Z,89.70
2022-09-18T03:13:13.458Z,89.90
2022-09-18T03:15:41.785Z,90.00
2022-09-18T03:18:10.154Z,90.20
2022-09-18T03:20:41.697Z,90.40
2022-09-18T03:23:10.024Z,90.50
2022-09-18T03:25:38.443Z,90.40
2022-09-18T03:28:07.104Z,90.30
2022-09-18T03:30:35.443Z,90.50
2022-09-18T03:33:03.887Z,90.50
2022-09-18T03:35:32.906Z,90.70
2022-09-18T03:38:02.573Z,90.50
2022-09-18T03:40:30.819Z,90.60
2022-09-18T03:42:59.094Z,90.70
2022-09-18T03:45:27.334Z,90.70
2022-09-18T03:47:55.518Z,90.80
2022-09-18T03:50:23.752Z,90.90
2022-09-18T03:52:52.005Z,91.10
2022-09-18T03:55:22.595Z,90.90
2022-09-18T03:57:50.941Z,91.10
2022-09-18T04:00:19.260Z,91.00
2022-09-18T04:02:47.585Z,91.10
2022-09-18T04:05:16.099Z,91.10
2022-09-18T04:07:44.391Z,91.00
2022-09-18T04:10:12.734Z,91.10
2022-09-18T04:12:45.177Z,91.10
2022-09-18T04:15:13.426Z,91.10
2022-09-18T04:17:41.844Z,91.00
2022-09-18T04:20:11.012Z,91.10
2022-09-18T04:22:39.356Z,91.10
2022-09-18T04:25:08.830Z,91.10
2022-09-18T04:27:37.284Z,91.00
2022-09-18T04:30:10.030Z,91.00
2022-09-18T04:32:38.271Z,91.00
2022-09-18T04:35:08.030Z,91.00
2022-09-18T04:37:36.388Z,91.00
2022-09-18T04:40:05.886Z,91.00
2022-09-18T04:42:34.141Z,91.20
2022-09-18T04:45:02.404Z,91.10
2022-09-18T04:47:32.037Z,90.90
2022-09-18T04:50:00.230Z,91.00
2022-09-18T04:52:28.638Z,91.00
2022-09-18T04:54:56.985Z,90.90
2022-09-18T04:57:25.245Z,90.90
2022-09-18T04:59:53.581Z,90.90
2022-09-18T05:02:21.896Z,90.80
2022-09-18T05:04:51.780Z,91.00
2022-09-18T05:07:20.136Z,90.80
2022-09-18T05:09:48.344Z,90.80
2022-09-18T05:12:16.571Z,90.70
2022-09-18T05:14:44.763Z,90.70
2022-09-18T05:17:13.035Z,90.70
2022-09-18T05:19:41.289Z,90.50
2022-09-18T05:22:10.897Z,90.60
2022-09-18T05:24:39.115Z,90.80
2022-09-18T05:27:07.602Z,90.70
2022-09-18T05:29:35.805Z,90.70
2022-09-18T05:32:04.726Z,90.60
2022-09-18T05:34:32.985Z,90.60
2022-09-18T05:37:01.303Z,90.60
2022-09-18T05:39:31.434Z,90.80
2022-09-18T05:41:59.791Z,90.50
2022-09-18T05:44:28.025Z,90.70
2022-09-18T05:46:56.273Z,90.70
2022-09-18T05:49:24.529Z,90.50
2022-09-18T05:51:54.452Z,90.50
2022-09-18T05:54:22.892Z,90.60
2022-09-18T05:56:52.462Z,90.40
2022-09-18T05:59:20.692Z,90.70
2022-09-18T06:01:48.928Z,90.50
2022-09-18T06:04:17.285Z,90.60
2022-09-18T06:06:45.504Z,90.60
2022-09-18T06:09:13.944Z,90.60
2022-09-18T06:11:42.141Z,90.60
2022-09-18T06:14:11.816Z,90.80
2022-09-18T06:16:42.325Z,90.70
2022-09-18T06:19:11.053Z,90.70
2022-09-18T06:21:39.408Z,90.80
2022-09-18T06:24:08.916Z,90.80
2022-09-18T06:26:37.309Z,90.90
2022-09-18T06:29:05.547Z,90.80
2022-09-18T06:31:35.160Z,90.80
2022-09-18T06:34:03.484Z,90.90
2022-09-18T06:36:31.736Z,90.60
2022-09-18T06:39:00.276Z,90.60
2022-09-18T06:41:28.589Z,90.50
2022-09-18T06:43:56.807Z,90.50
2022-09-18T06:46:25.469Z,90.30
2022-09-18T06:48:55.119Z,90.40
2022-09-18T06:51:23.395Z,90.40
2022-09-18T06:53:51.610Z,90.30
2022-09-18T06:56:20.280Z,90.70
2022-09-18T06:58:48.585Z,90.30
2022-09-18T07:01:16.895Z,90.10
2022-09-18T07:03:45.167Z,90.20
2022-09-18T07:06:14.836Z,89.80
2022-09-18T07:08:43.152Z,89.90
2022-09-18T07:11:11.579Z,89.60
2022-09-18T07:13:39.850Z,89.80
2022-09-18T07:16:08.383Z,89.40
2022-09-18T07:18:36.670Z,89.50
2022-09-18T07:21:05.429Z,89.30
2022-09-18T07:23:35.852Z,88.90
2022-09-18T07:26:05.574Z,89.10
2022-09-18T07:28:34.149Z,88.80
2022-09-18T07:31:04.796Z,88.50
2022-09-18T07:33:34.052Z,88.80
2022-09-18T07:36:02.779Z,88.50
2022-09-18T07:38:31.812Z,88.80
2022-09-18T07:41:05.289Z,88.70
2022-09-18T07:43:33.855Z,88.60
2022-09-18T07:46:02.525Z,88.60
2022-09-18T07:48:30.958Z,88.40
2022-09-18T07:50:59.903Z,88.80
2022-09-18T07:53:29.505Z,89.10
2022-09-18T07:55:57.821Z,89.40
2022-09-18T07:58:27.997Z,89.30
2022-09-18T08:00:57.052Z,89.60
2022-09-18T08:03:26.316Z,89.10
2022-09-18T08:05:54.934Z,89.00
2022-09-18T08:08:23.339Z,89.00
2022-09-18T08:10:51.989Z,89.20
2022-09-18T08:13:20.239Z,89.10
2022-09-18T08:15:50.154Z,89.30
2022-09-18T08:18:18.486Z,89.30
2022-09-18T08:20:46.881Z,89.40
2022-09-18T08:23:15.213Z,90.00
2022-09-18T08:25:43.598Z,90.30
2022-09-18T08:28:12.307Z,90.20
2022-09-18T08:30:41.111Z,90.50
2022-09-18T08:33:12.047Z,90.40
2022-09-18T08:35:40.403Z,90.70
2022-09-18T08:38:10.410Z,90.90
2022-09-18T08:40:56.573Z,90.90
2022-09-18T08:43:52.356Z,90.80
2022-09-18T08:46:27.413Z,90.30
2022-09-18T08:49:08.387Z,90.10
2022-09-18T08:51:45.490Z,90.20
2022-09-18T08:54:27.579Z,90.10
2022-09-18T08:56:58.236Z,89.70
2022-09-18T08:59:35.881Z,89.80
2022-09-18T09:02:25.496Z,90.00
2022-09-18T09:05:01.619Z,89.70
2022-09-18T09:07:58.892Z,90.10
2022-09-18T09:10:44.088Z,90.70
2022-09-18T09:14:00.835Z,90.90
2022-09-18T09:16:43.321Z,91.30
2022-09-18T09:19:31.349Z,91.60
2022-09-18T09:22:08.791Z,91.80
2022-09-18T09:24:42.653Z,92.00
2022-09-18T09:27:23.584Z,92.10
2022-09-18T09:30:05.320Z,92.40
2022-09-18T09:32:39.976Z,92.10
2022-09-18T09:35:25.376Z,92.40
2022-09-18T09:37:55.934Z,91.80
2022-09-18T09:40:33.384Z,91.80
2022-09-18T09:43:05.110Z,92.10
2022-09-18T09:45:39.898Z,91.70
2022-09-18T09:48:17.971Z,91.80
2022-09-18T09:50:56.434Z,91.80
2022-09-18T09:53:29.017Z,91.20
2022-09-18T09:56:10.420Z,91.10
2022-09-18T09:58:50.158Z,90.60
2022-09-18T10:01:24.734Z,90.10
2022-09-18T10:04:13.334Z,90.30
2022-09-18T10:06:50.982Z,90.00
2022-09-18T10:09:37.042Z,90.30
2022-09-18T10:12:20.066Z,89.80
2022-09-18T10:14:50.551Z,89.90
2022-09-18T10:17:21.349Z,90.70
2022-09-18T10:19:50.635Z,90.20
2022-09-18T10:22:23.547Z,90.20
2022-09-18T10:25:00.281Z,89.70
2022-09-18T10:27:28.668Z,89.70
2022-09-18T10:29:57.229Z,89.70
2022-09-18T10:32:37.959Z,89.20
2022-09-18T10:35:42.353Z,88.90
2022-09-18T10:38:33.556Z,89.00
2022-09-18T10:41:22.722Z,88.40
2022-09-18T10:43:57.630Z,88.50
2022-09-18T10:46:29.475Z,89.00
2022-09-18T10:49:02.369Z,88.30
2022-09-18T10:51:30.872Z,88.20
2022-09-18T10:54:05.291Z,88.60
2022-09-18T10:56:35.041Z,88.60
2022-09-18T10:59:35.208Z,87.90
2022-09-18T11:02:07.012Z,87.80
2022-09-18T11:04:35.795Z,88.30
2022-09-18T11:07:07.625Z,88.00
2022-09-18T11:09:39.689Z,87.50
2022-09-18T11:12:19.179Z,87.70
2022-09-18T11:14:51.569Z,87.10
2022-09-18T11:17:26.572Z,86.50
2022-09-18T11:19:58.006Z,87.40
2022-09-18T11:22:41.656Z,86.90
2022-09-18T11:25:23.330Z,87.30
2022-09-18T11:27:55.774Z,87.00
2022-09-18T11:30:27.926Z,87.00
2022-09-18T11:33:00.545Z,87.10
2022-09-18T11:35:31.586Z,87.50
2022-09-18T11:38:06.351Z,87.80
2022-09-18T11:40:45.098Z,88.60
2022-09-18T11:43:22.583Z,89.20
2022-09-18T11:46:02.636Z,89.10
2022-09-18T11:48:37.567Z,89.40
2022-09-18T11:51:15.213Z,90.50
2022-09-18T11:53:47.416Z,90.80
2022-09-18T11:56:21.626Z,91.70
2022-09-18T11:58:56.335Z,92.50
2022-09-18T12:01:36.760Z,93.10
2022-09-18T12:04:28.129Z,93.40
2022-09-18T12:07:01.358Z,93.80
2022-09-18T12:09:42.309Z,94.00
2022-09-18T12:12:17.276Z,94.20
2022-09-18T12:14:52.592Z,94.40
2022-09-18T12:17:27.790Z,94.50
2022-09-18T12:20:00.590Z,94.60
2022-09-18T12:22:35.549Z,94.70
2022-09-18T12:25:14.339Z,94.80
2022-09-18T12:27:50.748Z,94.80
2022-09-18T12:30:22.932Z,94.80
2022-09-18T12:33:08.935Z,94.80
2022-09-18T12:35:57.913Z,94.90
2022-09-18T12:38:46.084Z,94.90
2022-09-18T12:41:37.922Z,95.10
2022-09-18T12:44:50.283Z,95.10
2022-09-18T12:47:50.432Z,95.10
2022-09-18T12:50:52.788Z,95.10
2022-09-18T12:53:37.777Z,95.00
2022-09-18T12:56:31.387Z,95.10
2022-09-18T12:59:33.844Z,95.20
2022-09-18T13:02:16.332Z,95.10
2022-09-18T13:04:50.318Z,95.20
2022-09-18T13:07:23.266Z,95.10
2022-09-18T13:09:56.427Z,95.20
2022-09-18T13:12:32.238Z,95.30
2022-09-18T13:15:06.468Z,95.30
2022-09-18T13:17:39.869Z,95.30
2022-09-18T13:20:18.902Z,95.30
2022-09-18T13:22:53.441Z,95.40
2022-09-18T13:25:28.596Z,95.30
2022-09-18T13:27:58.267Z,95.40
2022-09-18T13:30:33.150Z,95.30
2022-09-18T13:33:02.946Z,95.40
2022-09-18T13:35:35.375Z,95.50
2022-09-18T13:38:19.849Z,95.50
2022-09-18T13:40:50.786Z,95.50
2022-09-18T13:43:40.511Z,95.60
2022-09-18T13:46:11.187Z,95.60
2022-09-18T13:48:46.393Z,95.60
2022-09-18T13:51:28.496Z,95.60
2022-09-18T13:54:29.314Z,95.70
2022-09-18T13:57:21.399Z,95.70
2022-09-18T13:59:55.604Z,95.70
2022-09-18T14:02:36.992Z,95.70
2022-09-18T14:05:33.413Z,95.70
2022-09-18T14:08:37.522Z,95.70
2022-09-18T14:11:17.254Z,95.70
2022-09-18T14:13:51.876Z,95.80
2022-09-18T14:16:41.416Z,95.70
2022-09-18T14:19:32.082Z,95.80
2022-09-18T14:22:01.902Z,95.80
2022-09-18T14:25:00.690Z,95.70
2022-09-18T14:27:36.136Z,95.70
2022-09-18T14:30:19.733Z,95.70
2022-09-18T14:33:21.020Z,95.60
2022-09-18T14:35:56.253Z,95.70
2022-09-18T14:38:36.240Z,95.70
2022-09-18T14:41:19.372Z,95.60
2022-09-18T14:43:54.151Z,95.70
2022-09-18T14:46:25.782Z,95.70
2022-09-18T14:48:55.297Z,95.70
2022-09-18T14:51:25.824Z,95.70
2022-09-18T14:53:56.474Z,95.70
2022-09-18T14:56:32.359Z,95.70
2022-09-18T14:59:05.331Z,95.70
2022-09-18T15:01:37.284Z,95.70
2022-09-18T15:04:08.596Z,95.80
2022-09-18T15:06:41.506Z,95.80
2022-09-18T15:09:13.050Z,95.80
2022-09-18T15:12:01.827Z,95.90
2022-09-18T15:14:42.763Z,95.90
2022-09-18T15:17:20.413Z,95.90
2022-09-18T15:20:14.538Z,95.90
2022-09-18T15:22:45.328Z,95.90
2022-09-18T15:25:14.396Z,95.90
2022-09-18T15:27:45.488Z,95.90
2022-09-18T15:30:18.716Z,96.00
2022-09-18T15:32:51.474Z,96.00
2022-09-18T15:35:23.492Z,96.00
2022-09-18T15:37:57.261Z,95.90
2022-09-18T15:40:31.481Z,96.00
2022-09-18T15:43:03.782Z,96.00
2022-09-18T15:45:34.368Z,96.10
2022-09-18T15:48:34.897Z,96.10
2022-09-18T15:51:10.158Z,96.10
2022-09-18T15:53:38.661Z,96.10
2022-09-18T15:56:11.015Z,96.20
2022-09-18T15:58:47.754Z,96.20
2022-09-18T16:01:27.920Z,96.20
2022-09-18T16:04:20.332Z,96.20
2022-09-18T16:06:57.048Z,96.20
2022-09-18T16:09:37.891Z,96.30
2022-09-18T16:12:37.825Z,96.30
2022-09-18T16:15:25.631Z,96.30
2022-09-18T16:18:05.034Z,96.30
2022-09-18T16:20:38.638Z,96.30
2022-09-18T16:23:19.798Z,96.30
2022-09-18T16:26:01.418Z,96.40
2022-09-18T16:28:33.433Z,96.40
2022-09-18T16:31:03.063Z,96.40
2022-09-18T16:33:34.364Z,96.40
2022-09-18T16:36:07.320Z,96.40
2022-09-18T16:38:36.685Z,96.40
2022-09-18T16:41:05.150Z,96.40
2022-09-18T16:43:33.513Z,96.50
2022-09-18T16:46:03.173Z,96.50
2022-09-18T16:48:31.648Z,96.50
2022-09-18T16:51:00.091Z,96.50
2022-09-18T16:53:28.840Z,96.50
2022-09-18T16:55:59.197Z,96.50
2022-09-18T16:58:29.635Z,96.50
2022-09-18T17:00:58.979Z,96.50
2022-09-18T17:03:29.285Z,96.50
2022-09-18T17:05:57.620Z,96.40
2022-09-18T17:08:25.941Z,96.50
2022-09-18T17:10:54.367Z,96.50
2022-09-18T17:13:22.805Z,96.50
2022-09-18T17:15:51.431Z,96.50
2022-09-18T17:18:19.757Z,96.50
2022-09-18T17:20:49.463Z,96.50
2022-09-18T17:23:18.045Z,96.50
2022-09-18T17:25:46.457Z,96.40
2022-09-18T17:28:17.795Z,96.40
2022-09-18T17:30:46.364Z,96.50
2022-09-18T17:33:18.543Z,96.50
2022-09-18T17:35:49.999Z,96.40
2022-09-18T17:38:18.239Z,96.50
2022-09-18T17:40:58.154Z,96.50
2022-09-18T17:43:26.542Z,96.50
2022-09-18T17:45:56.629Z,96.50
2022-09-18T17:48:26.314Z,96.50
2022-09-18T17:51:00.068Z,96.50
2022-09-18T17:53:29.196Z,96.60
2022-09-18T17:55:59.501Z,96.60
2022-09-18T17:58:28.307Z,96.60
2022-09-18T18:00:57.163Z,96.60
2022-09-18T18:03:28.184Z,96.60
2022-09-18T18:06:00.284Z,96.60
2022-09-18T18:08:29.736Z,96.60
2022-09-18T18:11:06.967Z,96.60
2022-09-18T18:13:37.594Z,96.70
2022-09-18T18:16:07.641Z,96.70
2022-09-18T18:18:37.162Z,96.70
2022-09-18T18:21:08.847Z,96.70
2022-09-18T18:23:38.451Z,96.70
2022-09-18T18:26:10.459Z,96.70
2022-09-18T18:28:40.401Z,96.70
2022-09-18T18:31:14.267Z,96.80
2022-09-18T18:33:44.383Z,96.70
2022-09-18T18:36:17.738Z,96.80
2022-09-18T18:38:49.911Z,96.80
2022-09-18T18:41:20.605Z,96.80
2022-09-18T18:43:53.902Z,96.80
2022-09-18T18:46:24.228Z,96.80
2022-09-18T18:49:02.947Z,96.80
2022-09-18T18:51:35.635Z,96.80
2022-09-18T18:54:05.775Z,96.80
2022-09-18T18:56:37.716Z,96.80
2022-09-18T18:59:08.872Z,96.90
2022-09-18T19:01:37.200Z,96.80
2022-09-18T19:04:08.518Z,96.90
2022-09-18T19:06:40.579Z,96.80
2022-09-18T19:09:11.718Z,96.90
2022-09-18T19:11:46.875Z,96.80
2022-09-18T19:14:17.479Z,96.90
2022-09-18T19:16:47.578Z,96.90
2022-09-18T19:19:19.778Z,96.90
2022-09-18T19:21:49.583Z,96.90
2022-09-18T19:24:18.661Z,96.80
2022-09-18T19:26:48.212Z,96.90
2022-09-18T19:29:21.638Z,96.90
2022-09-18T19:31:50.927Z,96.90
2022-09-18T19:34:22.035Z,96.90
2022-09-18T19:36:52.049Z,96.90
2022-09-18T19:39:24.615Z,96.80
2022-09-18T19:41:59.441Z,96.90
2022-09-18T19:44:32.816Z,96.90
2022-09-18T19:47:06.816Z,96.90
2022-09-18T19:49:38.396Z,96.90
2022-09-18T19:52:18.420Z,96.90
2022-09-18T19:54:46.994Z,96.90
2022-09-18T19:57:15.756Z,96.90
2022-09-18T19:59:44.071Z,96.90
2022-09-18T20:02:15.402Z,96.90
2022-09-18T20:04:43.903Z,96.90
2022-09-18T20:07:13.885Z,96.90
2022-09-18T20:09:42.272Z,96.90
2022-09-18T20:12:11.157Z,96.90
2022-09-18T20:14:39.437Z,96.90
2022-09-18T20:17:08.404Z,96.90
2022-09-18T20:19:36.878Z,96.90
2022-09-18T20:22:06.178Z,97.00
2022-09-18T20:24:35.874Z,97.00
2022-09-18T20:27:04.410Z,97.00
2022-09-18T20:29:33.672Z,97.00
2022-09-18T20:32:02.827Z,97.00
2022-09-18T20:34:31.079Z,97.00
2022-09-18T20:36:59.346Z,97.00
2022-09-18T20:39:27.737Z,97.00
2022-09-18T20:42:00.516Z,97.00
2022-09-18T20:44:29.429Z,97.00
2022-09-18T20:46:58.072Z,97.00
2022-09-18T20:49:26.482Z,97.00
2022-09-18T20:51:54.892Z,97.00
2022-09-18T20:54:23.223Z,97.00
2022-09-18T20:56:51.568Z,97.10
2022-09-18T20:59:21.391Z,97.10
2022-09-18T21:01:49.979Z,97.10
2022-09-18T21:04:20.628Z,97.10
2022-09-18T21:06:56.201Z,97.10
2022-09-18T21:09:26.950Z,97.10
2022-09-18T21:11:56.700Z,97.10
2022-09-18T21:14:27.449Z,97.10
2022-09-18T21:16:56.014Z,97.10
2022-09-18T21:19:26.318Z,97.10
2022-09-18T21:21:54.921Z,97.10
2022-09-18T21:24:23.552Z,97.10
2022-09-18T21:26:52.025Z,97.10
2022-09-18T21:29:23.387Z,97.10
2022-09-18T21:31:55.600Z,97.10
2022-09-18T21:34:26.884Z,97.10
2022-09-18T21:36:57.716Z,97.10
2022-09-18T21:39:28.645Z,97.10
2022-09-18T21:41:57.511Z,97.10
2022-09-18T21:44:28.484Z,97.10
2022-09-18T21:47:02.032Z,97.10
2022-09-18T21:49:31.352Z,97.10
2022-09-18T21:52:02.056Z,97.10
2022-09-18T21:54:31.890Z,97.10
2022-09-18T21:57:01.022Z,97.10
2022-09-18T21:59:31.666Z,97.10
2022-09-18T22:02:03.241Z,97.10
2022-09-18T22:04:33.974Z,97.10
2022-09-18T22:07:03.070Z,97.10
2022-09-18T22:09:35.030Z,97.10
2022-09-18T22:12:03.712Z,97.10
2022-09-18T22:14:34.736Z,97.10
2022-09-18T22:17:07.473Z,97.10
2022-09-18T22:19:40.590Z,97.20
2022-09-18T22:22:10.423Z,97.10
2022-09-18T22:24:39.343Z,97.20
2022-09-18T22:27:08.664Z,97.20
2022-09-18T22:29:39.593Z,97.10
2022-09-18T22:32:10.132Z,97.10
2022-09-18T22:34:38.663Z,97.20
2022-09-18T22:37:07.830Z,97.20
2022-09-18T22:39:36.196Z,97.20
2022-09-18T22:42:05.050Z,97.20
2022-09-18T22:44:33.375Z,97.20
2022-09-18T22:47:03.071Z,97.20
2022-09-18T22:49:32.792Z,97.20
2022-09-18T22:52:01.100Z,97.20
2022-09-18T22:54:29.528Z,97.20
2022-09-18T22:56:57.764Z,97.20
2022-09-18T22:59:28.557Z,97.20
2022-09-18T23:02:00.537Z,97.20
2022-09-18T23:04:33.651Z,97.20
2022-09-18T23:07:03.374Z,97.20
2022-09-18T23:09:32.385Z,97.20
2022-09-18T23:12:01.082Z,97.20
2022-09-18T23:14:31.226Z,97.20
2022-09-18T23:17:01.537Z,97.20
2022-09-18T23:19:34.112Z,97.20
2022-09-18T23:22:02.922Z,97.20
2022-09-18T23:24:31.790Z,97.20
2022-09-18T23:27:00.517Z,97.20
2022-09-18T23:29:31.983Z,97.20
2022-09-18T23:32:00.849Z,97.20
2022-09-18T23:34:33.816Z,97.20
2022-09-18T23:37:02.584Z,97.20
2022-09-18T23:39:33.574Z,97.20
2022-09-18T23:42:05.838Z,97.20
2022-09-18T23:44:34.501Z,97.20
2022-09-18T23:47:03.194Z,97.20
2022-09-18T23:49:33.492Z,97.20
2022-09-18T23:52:02.813Z,97.20
2022-09-18T23:54:32.783Z,97.20
2022-09-18T23:57:01.115Z,97.20
2022-09-18T23:59:29.805Z,97.20
